sensor_id;sensor_type;location;lat;lon;timestamp;P1;durP1;ratioP1;P2;durP2;ratioP2
45970;SDS011;31681;48.982;8.394;2023-05-29T00:00:00;6.85;;;4.72;;
45970;SDS011;31681;48.982;8.394;2023-05-29T00:02:25;11.10;;;4.82;;
45970;SDS011;31681;48.982;8.394;2023-05-29T00:04:50;7.97;;;4.60;;
45970;SDS011;31681;48.982;8.394;2023-05-29T00:07:16;8.27;;;4.53;;
45970;SDS011;31681;48.982;8.394;2023-05-29T00:09:41;7.18;;;3.97;;
45970;SDS011;31681;48.982;8.394;2023-05-29T00:12:07;9.18;;;4.57;;
45970;SDS011;31681;48.982;8.394;2023-05-29T00:14:32;9.15;;;4.68;;
45970;SDS011;31681;48.982;8.394;2023-05-29T00:16:57;8.90;;;4.45;;
45970;SDS011;31681;48.982;8.394;2023-05-29T00:19:23;8.88;;;4.25;;
45970;SDS011;31681;48.982;8.394;2023-05-29T00:21:50;6.93;;;4.40;;
45970;SDS011;31681;48.982;8.394;2023-05-29T00:24:15;9.38;;;4.40;;
45970;SDS011;31681;48.982;8.394;2023-05-29T00:26:42;10.32;;;4.57;;
45970;SDS011;31681;48.982;8.394;2023-05-29T00:29:07;9.88;;;5.10;;
45970;SDS011;31681;48.982;8.394;2023-05-29T00:31:33;7.05;;;4.43;;
45970;SDS011;31681;48.982;8.394;2023-05-29T00:33:58;7.93;;;5.25;;
45970;SDS011;31681;48.982;8.394;2023-05-29T00:36:24;10.68;;;4.57;;
45970;SDS011;31681;48.982;8.394;2023-05-29T00:38:50;6.18;;;4.13;;
45970;SDS011;31681;48.982;8.394;2023-05-29T00:41:15;9.75;;;4.47;;
45970;SDS011;31681;48.982;8.394;2023-05-29T00:43:41;6.68;;;3.95;;
45970;SDS011;31681;48.982;8.394;2023-05-29T00:46:07;8.00;;;4.53;;
45970;SDS011;31681;48.982;8.394;2023-05-29T00:48:32;9.82;;;4.47;;
45970;SDS011;31681;48.982;8.394;2023-05-29T00:50:58;9.57;;;4.45;;
45970;SDS011;31681;48.982;8.394;2023-05-29T00:53:23;8.65;;;4.40;;
45970;SDS011;31681;48.982;8.394;2023-05-29T00:55:48;7.22;;;4.03;;
45970;SDS011;31681;48.982;8.394;2023-05-29T00:58:14;8.40;;;4.15;;
45970;SDS011;31681;48.982;8.394;2023-05-29T01:00:40;9.40;;;4.00;;
45970;SDS011;31681;48.982;8.394;2023-05-29T01:03:05;8.80;;;4.47;;
45970;SDS011;31681;48.982;8.394;2023-05-29T01:05:34;5.80;;;3.92;;
45970;SDS011;31681;48.982;8.394;2023-05-29T01:08:02;7.50;;;3.65;;
45970;SDS011;31681;48.982;8.394;2023-05-29T01:10:27;8.88;;;4.57;;
45970;SDS011;31681;48.982;8.394;2023-05-29T01:23:40;9.43;;;4.32;;
45970;SDS011;31681;48.982;8.394;2023-05-29T01:25:55;6.95;;;4.25;;
45970;SDS011;31681;48.982;8.394;2023-05-29T01:28:24;8.30;;;4.00;;
45970;SDS011;31681;48.982;8.394;2023-05-29T01:30:51;8.40;;;4.18;;
45970;SDS011;31681;48.982;8.394;2023-05-29T01:33:18;6.13;;;4.50;;
45970;SDS011;31681;48.982;8.394;2023-05-29T01:35:44;6.53;;;3.90;;
45970;SDS011;31681;48.982;8.394;2023-05-29T01:38:10;7.82;;;3.85;;
45970;SDS011;31681;48.982;8.394;2023-05-29T01:40:36;7.93;;;3.70;;
45970;SDS011;31681;48.982;8.394;2023-05-29T01:43:01;8.95;;;4.38;;
45970;SDS011;31681;48.982;8.394;2023-05-29T01:45:27;9.65;;;4.32;;
45970;SDS011;31681;48.982;8.394;2023-05-29T01:47:52;7.40;;;4.03;;
45970;SDS011;31681;48.982;8.394;2023-05-29T01:50:19;7.55;;;4.22;;
45970;SDS011;31681;48.982;8.394;2023-05-29T01:52:46;6.97;;;3.72;;
45970;SDS011;31681;48.982;8.394;2023-05-29T01:55:11;9.43;;;4.35;;
45970;SDS011;31681;48.982;8.394;2023-05-29T01:57:38;7.70;;;3.85;;
45970;SDS011;31681;48.982;8.394;2023-05-29T02:00:04;8.30;;;4.28;;
45970;SDS011;31681;48.982;8.394;2023-05-29T02:02:39;7.88;;;4.28;;
45970;SDS011;31681;48.982;8.394;2023-05-29T02:05:06;7.55;;;4.20;;
45970;SDS011;31681;48.982;8.394;2023-05-29T02:07:32;6.45;;;4.10;;
45970;SDS011;31681;48.982;8.394;2023-05-29T02:09:57;8.75;;;4.28;;
45970;SDS011;31681;48.982;8.394;2023-05-29T02:12:22;9.55;;;4.18;;
45970;SDS011;31681;48.982;8.394;2023-05-29T02:14:48;8.90;;;4.35;;
45970;SDS011;31681;48.982;8.394;2023-05-29T02:17:13;6.55;;;4.22;;
45970;SDS011;31681;48.982;8.394;2023-05-29T02:19:40;8.27;;;4.18;;
45970;SDS011;31681;48.982;8.394;2023-05-29T02:22:06;7.03;;;3.80;;
45970;SDS011;31681;48.982;8.394;2023-05-29T02:24:33;9.32;;;4.15;;
45970;SDS011;31681;48.982;8.394;2023-05-29T02:26:59;9.32;;;4.47;;
45970;SDS011;31681;48.982;8.394;2023-05-29T02:29:24;9.40;;;4.45;;
45970;SDS011;31681;48.982;8.394;2023-05-29T02:31:53;10.02;;;4.80;;
45970;SDS011;31681;48.982;8.394;2023-05-29T02:34:18;7.53;;;4.35;;
45970;SDS011;31681;48.982;8.394;2023-05-29T02:36:43;9.25;;;5.05;;
45970;SDS011;31681;48.982;8.394;2023-05-29T02:39:09;9.43;;;4.53;;
45970;SDS011;31681;48.982;8.394;2023-05-29T02:41:34;8.23;;;4.55;;
45970;SDS011;31681;48.982;8.394;2023-05-29T02:44:00;9.85;;;4.32;;
45970;SDS011;31681;48.982;8.394;2023-05-29T02:46:25;7.82;;;4.57;;
45970;SDS011;31681;48.982;8.394;2023-05-29T02:48:50;8.43;;;4.93;;
45970;SDS011;31681;48.982;8.394;2023-05-29T02:51:16;11.50;;;4.60;;
45970;SDS011;31681;48.982;8.394;2023-05-29T02:53:41;8.35;;;4.40;;
45970;SDS011;31681;48.982;8.394;2023-05-29T02:56:07;6.80;;;4.32;;
45970;SDS011;31681;48.982;8.394;2023-05-29T02:58:33;10.02;;;4.80;;
45970;SDS011;31681;48.982;8.394;2023-05-29T03:01:00;6.95;;;4.75;;
45970;SDS011;31681;48.982;8.394;2023-05-29T03:03:27;6.75;;;4.72;;
45970;SDS011;31681;48.982;8.394;2023-05-29T03:05:52;9.75;;;4.60;;
45970;SDS011;31681;48.982;8.394;2023-05-29T03:08:18;9.13;;;4.13;;
45970;SDS011;31681;48.982;8.394;2023-05-29T03:10:43;6.40;;;4.20;;
45970;SDS011;31681;48.982;8.394;2023-05-29T03:13:10;10.15;;;4.55;;
45970;SDS011;31681;48.982;8.394;2023-05-29T03:15:39;6.63;;;4.15;;
45970;SDS011;31681;48.982;8.394;2023-05-29T03:18:09;5.93;;;3.85;;
45970;SDS011;31681;48.982;8.394;2023-05-29T03:20:34;5.85;;;3.80;;
45970;SDS011;31681;48.982;8.394;2023-05-29T03:23:01;9.25;;;4.85;;
45970;SDS011;31681;48.982;8.394;2023-05-29T03:25:28;7.95;;;4.72;;
45970;SDS011;31681;48.982;8.394;2023-05-29T03:27:53;7.82;;;4.10;;
45970;SDS011;31681;48.982;8.394;2023-05-29T03:30:20;7.20;;;3.85;;
45970;SDS011;31681;48.982;8.394;2023-05-29T03:32:48;8.80;;;3.90;;
45970;SDS011;31681;48.982;8.394;2023-05-29T03:35:14;7.32;;;4.28;;
45970;SDS011;31681;48.982;8.394;2023-05-29T03:37:42;6.03;;;3.83;;
45970;SDS011;31681;48.982;8.394;2023-05-29T03:40:08;9.20;;;4.28;;
45970;SDS011;31681;48.982;8.394;2023-05-29T03:42:34;7.07;;;4.43;;
45970;SDS011;31681;48.982;8.394;2023-05-29T03:45:00;9.57;;;4.88;;
45970;SDS011;31681;48.982;8.394;2023-05-29T03:47:27;5.53;;;4.03;;
45970;SDS011;31681;48.982;8.394;2023-05-29T03:49:53;6.40;;;3.65;;
45970;SDS011;31681;48.982;8.394;2023-05-29T03:52:18;7.88;;;3.80;;
45970;SDS011;31681;48.982;8.394;2023-05-29T03:54:44;5.38;;;4.07;;
45970;SDS011;31681;48.982;8.394;2023-05-29T03:57:10;7.53;;;4.40;;
45970;SDS011;31681;48.982;8.394;2023-05-29T03:59:35;9.57;;;4.50;;
45970;SDS011;31681;48.982;8.394;2023-05-29T04:02:01;7.32;;;4.35;;
45970;SDS011;31681;48.982;8.394;2023-05-29T04:04:27;8.32;;;4.80;;
45970;SDS011;31681;48.982;8.394;2023-05-29T04:06:53;8.57;;;4.75;;
45970;SDS011;31681;48.982;8.394;2023-05-29T04:09:18;10.45;;;4.57;;
45970;SDS011;31681;48.982;8.394;2023-05-29T04:11:44;7.22;;;4.80;;
45970;SDS011;31681;48.982;8.394;2023-05-29T04:14:10;9.68;;;4.80;;
45970;SDS011;31681;48.982;8.394;2023-05-29T04:16:36;6.97;;;4.55;;
45970;SDS011;31681;48.982;8.394;2023-05-29T04:19:01;7.22;;;4.75;;
45970;SDS011;31681;48.982;8.394;2023-05-29T04:21:29;7.28;;;4.40;;
45970;SDS011;31681;48.982;8.394;2023-05-29T04:23:54;8.07;;;4.60;;
45970;SDS011;31681;48.982;8.394;2023-05-29T04:26:21;7.78;;;4.57;;
45970;SDS011;31681;48.982;8.394;2023-05-29T04:28:50;8.27;;;4.13;;
45970;SDS011;31681;48.982;8.394;2023-05-29T04:31:17;7.40;;;4.40;;
45970;SDS011;31681;48.982;8.394;2023-05-29T04:33:43;8.88;;;4.10;;
45970;SDS011;31681;48.982;8.394;2023-05-29T04:36:10;9.57;;;4.60;;
45970;SDS011;31681;48.982;8.394;2023-05-29T04:38:38;9.40;;;4.60;;
45970;SDS011;31681;48.982;8.394;2023-05-29T04:41:05;8.65;;;4.63;;
45970;SDS011;31681;48.982;8.394;2023-05-29T04:43:33;7.85;;;4.18;;
45970;SDS011;31681;48.982;8.394;2023-05-29T04:46:04;8.07;;;4.05;;
45970;SDS011;31681;48.982;8.394;2023-05-29T04:48:32;7.97;;;3.88;;
45970;SDS011;31681;48.982;8.394;2023-05-29T04:50:57;8.82;;;3.83;;
45970;SDS011;31681;48.982;8.394;2023-05-29T04:53:24;10.05;;;4.18;;
45970;SDS011;31681;48.982;8.394;2023-05-29T04:55:50;9.05;;;4.20;;
45970;SDS011;31681;48.982;8.394;2023-05-29T04:58:15;6.43;;;4.05;;
45970;SDS011;31681;48.982;8.394;2023-05-29T05:00:41;9.63;;;3.97;;
45970;SDS011;31681;48.982;8.394;2023-05-29T05:03:08;12.38;;;4.68;;
45970;SDS011;31681;48.982;8.394;2023-05-29T05:05:35;8.32;;;3.90;;
45970;SDS011;31681;48.982;8.394;2023-05-29T05:08:01;10.63;;;5.00;;
45970;SDS011;31681;48.982;8.394;2023-05-29T05:10:27;7.55;;;4.35;;
45970;SDS011;31681;48.982;8.394;2023-05-29T05:12:54;7.95;;;4.60;;
45970;SDS011;31681;48.982;8.394;2023-05-29T05:15:21;7.63;;;4.00;;
45970;SDS011;31681;48.982;8.394;2023-05-29T05:17:46;9.45;;;3.95;;
45970;SDS011;31681;48.982;8.394;2023-05-29T05:20:12;8.70;;;4.43;;
45970;SDS011;31681;48.982;8.394;2023-05-29T05:22:37;7.85;;;4.07;;
45970;SDS011;31681;48.982;8.394;2023-05-29T05:25:04;7.43;;;4.15;;
45970;SDS011;31681;48.982;8.394;2023-05-29T05:27:29;5.78;;;4.03;;
45970;SDS011;31681;48.982;8.394;2023-05-29T05:29:55;6.10;;;3.58;;
45970;SDS011;31681;48.982;8.394;2023-05-29T05:32:20;7.50;;;3.80;;
45970;SDS011;31681;48.982;8.394;2023-05-29T05:34:53;8.10;;;4.40;;
45970;SDS011;31681;48.982;8.394;2023-05-29T05:37:18;9.15;;;4.07;;
45970;SDS011;31681;48.982;8.394;2023-05-29T05:39:44;10.60;;;4.15;;
45970;SDS011;31681;48.982;8.394;2023-05-29T05:42:10;7.22;;;4.13;;
45970;SDS011;31681;48.982;8.394;2023-05-29T05:44:50;9.35;;;4.25;;
45970;SDS011;31681;48.982;8.394;2023-05-29T05:47:15;6.60;;;4.65;;
45970;SDS011;31681;48.982;8.394;2023-05-29T05:49:41;8.80;;;4.05;;
45970;SDS011;31681;48.982;8.394;2023-05-29T05:52:06;10.23;;;4.68;;
45970;SDS011;31681;48.982;8.394;2023-05-29T05:54:31;7.20;;;3.92;;
45970;SDS011;31681;48.982;8.394;2023-05-29T05:56:57;9.27;;;4.00;;
45970;SDS011;31681;48.982;8.394;2023-05-29T05:59:23;11.00;;;4.47;;
45970;SDS011;31681;48.982;8.394;2023-05-29T06:01:48;8.30;;;4.05;;
45970;SDS011;31681;48.982;8.394;2023-05-29T06:04:14;7.85;;;4.35;;
45970;SDS011;31681;48.982;8.394;2023-05-29T06:06:39;10.85;;;4.82;;
45970;SDS011;31681;48.982;8.394;2023-05-29T06:09:04;7.15;;;3.83;;
45970;SDS011;31681;48.982;8.394;2023-05-29T06:11:30;7.70;;;4.32;;
45970;SDS011;31681;48.982;8.394;2023-05-29T06:13:57;8.10;;;4.00;;
45970;SDS011;31681;48.982;8.394;2023-05-29T06:16:27;8.68;;;3.95;;
45970;SDS011;31681;48.982;8.394;2023-05-29T06:18:52;9.45;;;4.50;;
45970;SDS011;31681;48.982;8.394;2023-05-29T06:21:18;7.85;;;3.97;;
45970;SDS011;31681;48.982;8.394;2023-05-29T06:23:50;9.07;;;4.00;;
45970;SDS011;31681;48.982;8.394;2023-05-29T06:26:16;4.75;;;3.58;;
45970;SDS011;31681;48.982;8.394;2023-05-29T06:28:41;9.80;;;4.72;;
45970;SDS011;31681;48.982;8.394;2023-05-29T06:31:07;6.03;;;3.65;;
45970;SDS011;31681;48.982;8.394;2023-05-29T06:33:32;6.68;;;3.83;;
45970;SDS011;31681;48.982;8.394;2023-05-29T06:35:58;9.30;;;3.78;;
45970;SDS011;31681;48.982;8.394;2023-05-29T06:38:23;4.97;;;3.58;;
45970;SDS011;31681;48.982;8.394;2023-05-29T06:40:49;6.35;;;3.20;;
45970;SDS011;31681;48.982;8.394;2023-05-29T06:43:14;8.68;;;3.60;;
45970;SDS011;31681;48.982;8.394;2023-05-29T06:45:45;4.88;;;3.28;;
45970;SDS011;31681;48.982;8.394;2023-05-29T06:48:11;7.60;;;3.85;;
45970;SDS011;31681;48.982;8.394;2023-05-29T06:50:38;7.35;;;3.60;;
45970;SDS011;31681;48.982;8.394;2023-05-29T06:53:19;6.60;;;3.50;;
45970;SDS011;31681;48.982;8.394;2023-05-29T06:55:49;8.05;;;3.40;;
45970;SDS011;31681;48.982;8.394;2023-05-29T06:58:14;6.55;;;3.47;;
45970;SDS011;31681;48.982;8.394;2023-05-29T07:00:40;9.57;;;3.63;;
45970;SDS011;31681;48.982;8.394;2023-05-29T07:03:27;7.78;;;3.58;;
45970;SDS011;31681;48.982;8.394;2023-05-29T07:05:53;4.80;;;3.47;;
45970;SDS011;31681;48.982;8.394;2023-05-29T07:08:19;4.75;;;3.25;;
45970;SDS011;31681;48.982;8.394;2023-05-29T07:10:45;5.93;;;3.13;;
45970;SDS011;31681;48.982;8.394;2023-05-29T07:13:15;5.15;;;3.38;;
45970;SDS011;31681;48.982;8.394;2023-05-29T07:15:40;5.45;;;3.45;;
45970;SDS011;31681;48.982;8.394;2023-05-29T07:18:06;6.38;;;3.58;;
45970;SDS011;31681;48.982;8.394;2023-05-29T07:20:32;3.78;;;2.95;;
45970;SDS011;31681;48.982;8.394;2023-05-29T07:22:58;7.15;;;3.70;;
45970;SDS011;31681;48.982;8.394;2023-05-29T07:25:23;5.88;;;3.45;;
45970;SDS011;31681;48.982;8.394;2023-05-29T07:27:48;6.25;;;3.22;;
45970;SDS011;31681;48.982;8.394;2023-05-29T07:30:14;6.43;;;3.00;;
45970;SDS011;31681;48.982;8.394;2023-05-29T07:32:42;3.80;;;2.88;;
45970;SDS011;31681;48.982;8.394;2023-05-29T07:35:07;3.78;;;3.15;;
45970;SDS011;31681;48.982;8.394;2023-05-29T07:37:34;5.63;;;3.50;;
45970;SDS011;31681;48.982;8.394;2023-05-29T07:39:59;6.28;;;3.15;;
45970;SDS011;31681;48.982;8.394;2023-05-29T07:43:03;5.97;;;3.72;;
45970;SDS011;31681;48.982;8.394;2023-05-29T07:45:43;6.60;;;3.05;;
45970;SDS011;31681;48.982;8.394;2023-05-29T07:48:09;4.45;;;3.30;;
45970;SDS011;31681;48.982;8.394;2023-05-29T07:50:34;7.18;;;3.55;;
45970;SDS011;31681;48.982;8.394;2023-05-29T07:53:00;8.70;;;3.35;;
45970;SDS011;31681;48.982;8.394;2023-05-29T07:55:26;6.22;;;3.22;;
45970;SDS011;31681;48.982;8.394;2023-05-29T07:57:51;5.85;;;3.42;;
45970;SDS011;31681;48.982;8.394;2023-05-29T08:00:17;7.68;;;3.28;;
45970;SDS011;31681;48.982;8.394;2023-05-29T08:02:46;5.20;;;3.13;;
45970;SDS011;31681;48.982;8.394;2023-05-29T08:05:46;5.55;;;3.20;;
45970;SDS011;31681;48.982;8.394;2023-05-29T08:08:12;6.18;;;3.47;;
45970;SDS011;31681;48.982;8.394;2023-05-29T08:10:39;6.78;;;3.20;;
45970;SDS011;31681;48.982;8.394;2023-05-29T08:13:05;4.40;;;2.88;;
45970;SDS011;31681;48.982;8.394;2023-05-29T08:15:32;6.25;;;3.35;;
45970;SDS011;31681;48.982;8.394;2023-05-29T08:17:57;5.63;;;3.40;;
45970;SDS011;31681;48.982;8.394;2023-05-29T08:20:23;7.90;;;3.35;;
45970;SDS011;31681;48.982;8.394;2023-05-29T08:22:48;6.47;;;3.47;;
45970;SDS011;31681;48.982;8.394;2023-05-29T08:25:13;5.00;;;3.55;;
45970;SDS011;31681;48.982;8.394;2023-05-29T08:27:39;6.75;;;3.13;;
45970;SDS011;31681;48.982;8.394;2023-05-29T08:30:04;6.00;;;3.42;;
45970;SDS011;31681;48.982;8.394;2023-05-29T08:32:30;6.25;;;3.38;;
45970;SDS011;31681;48.982;8.394;2023-05-29T08:34:55;5.70;;;3.40;;
45970;SDS011;31681;48.982;8.394;2023-05-29T08:37:20;6.20;;;3.50;;
45970;SDS011;31681;48.982;8.394;2023-05-29T08:39:46;5.70;;;3.40;;
45970;SDS011;31681;48.982;8.394;2023-05-29T08:42:22;5.97;;;3.17;;
45970;SDS011;31681;48.982;8.394;2023-05-29T08:44:51;8.38;;;3.33;;
45970;SDS011;31681;48.982;8.394;2023-05-29T08:47:19;5.10;;;3.47;;
45970;SDS011;31681;48.982;8.394;2023-05-29T08:49:48;6.88;;;3.53;;
45970;SDS011;31681;48.982;8.394;2023-05-29T08:52:17;8.35;;;3.60;;
45970;SDS011;31681;48.982;8.394;2023-05-29T08:54:43;6.10;;;3.47;;
45970;SDS011;31681;48.982;8.394;2023-05-29T08:57:10;5.97;;;3.63;;
45970;SDS011;31681;48.982;8.394;2023-05-29T08:59:36;5.57;;;3.97;;
45970;SDS011;31681;48.982;8.394;2023-05-29T09:02:02;7.80;;;3.70;;
45970;SDS011;31681;48.982;8.394;2023-05-29T09:04:28;8.70;;;4.10;;
45970;SDS011;31681;48.982;8.394;2023-05-29T09:06:55;4.57;;;3.63;;
45970;SDS011;31681;48.982;8.394;2023-05-29T09:09:21;8.98;;;4.05;;
45970;SDS011;31681;48.982;8.394;2023-05-29T09:11:46;7.32;;;3.85;;
45970;SDS011;31681;48.982;8.394;2023-05-29T09:16:57;5.55;;;3.05;;
45970;SDS011;31681;48.982;8.394;2023-05-29T09:19:22;6.60;;;3.40;;
45970;SDS011;31681;48.982;8.394;2023-05-29T09:21:48;6.63;;;3.50;;
45970;SDS011;31681;48.982;8.394;2023-05-29T09:24:13;6.07;;;3.70;;
45970;SDS011;31681;48.982;8.394;2023-05-29T09:26:39;7.18;;;3.75;;
45970;SDS011;31681;48.982;8.394;2023-05-29T09:29:04;6.57;;;3.30;;
45970;SDS011;31681;48.982;8.394;2023-05-29T09:31:30;5.47;;;3.20;;
45970;SDS011;31681;48.982;8.394;2023-05-29T09:33:55;5.40;;;3.47;;
45970;SDS011;31681;48.982;8.394;2023-05-29T09:36:26;7.43;;;3.97;;
45970;SDS011;31681;48.982;8.394;2023-05-29T09:38:51;7.30;;;3.67;;
45970;SDS011;31681;48.982;8.394;2023-05-29T09:41:20;6.70;;;3.50;;
45970;SDS011;31681;48.982;8.394;2023-05-29T09:43:48;6.95;;;3.63;;
45970;SDS011;31681;48.982;8.394;2023-05-29T09:46:14;5.90;;;3.40;;
45970;SDS011;31681;48.982;8.394;2023-05-29T09:48:40;6.95;;;3.35;;
45970;SDS011;31681;48.982;8.394;2023-05-29T09:51:07;6.00;;;3.60;;
45970;SDS011;31681;48.982;8.394;2023-05-29T09:53:44;7.97;;;3.88;;
45970;SDS011;31681;48.982;8.394;2023-05-29T09:56:11;8.18;;;3.75;;
45970;SDS011;31681;48.982;8.394;2023-05-29T09:58:38;6.38;;;4.10;;
45970;SDS011;31681;48.982;8.394;2023-05-29T10:01:11;7.05;;;3.92;;
45970;SDS011;31681;48.982;8.394;2023-05-29T10:03:36;7.07;;;3.80;;
45970;SDS011;31681;48.982;8.394;2023-05-29T10:06:01;4.35;;;3.38;;
45970;SDS011;31681;48.982;8.394;2023-05-29T10:08:27;22.73;;;5.20;;
45970;SDS011;31681;48.982;8.394;2023-05-29T10:11:01;7.03;;;3.50;;
45970;SDS011;31681;48.982;8.394;2023-05-29T10:13:27;7.45;;;3.60;;
45970;SDS011;31681;48.982;8.394;2023-05-29T10:15:54;6.00;;;3.75;;
45970;SDS011;31681;48.982;8.394;2023-05-29T10:18:21;5.53;;;3.45;;
45970;SDS011;31681;48.982;8.394;2023-05-29T10:20:48;6.18;;;3.83;;
45970;SDS011;31681;48.982;8.394;2023-05-29T10:23:17;7.10;;;3.58;;
45970;SDS011;31681;48.982;8.394;2023-05-29T10:25:43;5.88;;;3.90;;
45970;SDS011;31681;48.982;8.394;2023-05-29T10:28:12;7.47;;;3.88;;
45970;SDS011;31681;48.982;8.394;2023-05-29T10:30:39;9.02;;;3.30;;
45970;SDS011;31681;48.982;8.394;2023-05-29T10:35:52;5.82;;;3.40;;
45970;SDS011;31681;48.982;8.394;2023-05-29T10:38:18;6.43;;;3.63;;
45970;SDS011;31681;48.982;8.394;2023-05-29T10:40:44;6.90;;;3.45;;
45970;SDS011;31681;48.982;8.394;2023-05-29T10:43:29;6.18;;;3.60;;
45970;SDS011;31681;48.982;8.394;2023-05-29T10:45:55;10.27;;;3.80;;
45970;SDS011;31681;48.982;8.394;2023-05-29T10:50:54;8.05;;;3.78;;
45970;SDS011;31681;48.982;8.394;2023-05-29T10:53:25;7.30;;;3.92;;
45970;SDS011;31681;48.982;8.394;2023-05-29T10:55:51;7.95;;;3.58;;
45970;SDS011;31681;48.982;8.394;2023-05-29T10:58:24;6.55;;;3.60;;
45970;SDS011;31681;48.982;8.394;2023-05-29T11:00:49;4.93;;;3.30;;
45970;SDS011;31681;48.982;8.394;2023-05-29T11:03:15;5.25;;;3.30;;
45970;SDS011;31681;48.982;8.394;2023-05-29T11:05:57;5.75;;;3.30;;
45970;SDS011;31681;48.982;8.394;2023-05-29T11:08:35;6.22;;;3.28;;
45970;SDS011;31681;48.982;8.394;2023-05-29T11:11:06;7.20;;;3.83;;
45970;SDS011;31681;48.982;8.394;2023-05-29T11:13:33;5.03;;;3.50;;
45970;SDS011;31681;48.982;8.394;2023-05-29T11:18:31;6.35;;;3.53;;
45970;SDS011;31681;48.982;8.394;2023-05-29T11:21:01;7.32;;;3.25;;
45970;SDS011;31681;48.982;8.394;2023-05-29T11:23:29;6.18;;;3.53;;
45970;SDS011;31681;48.982;8.394;2023-05-29T11:25:56;5.10;;;3.08;;
45970;SDS011;31681;48.982;8.394;2023-05-29T11:28:22;5.75;;;3.22;;
45970;SDS011;31681;48.982;8.394;2023-05-29T11:30:47;5.93;;;3.53;;
45970;SDS011;31681;48.982;8.394;2023-05-29T11:33:22;5.25;;;3.47;;
45970;SDS011;31681;48.982;8.394;2023-05-29T11:35:50;5.95;;;3.10;;
45970;SDS011;31681;48.982;8.394;2023-05-29T11:38:15;5.22;;;3.05;;
45970;SDS011;31681;48.982;8.394;2023-05-29T11:40:40;4.45;;;3.58;;
45970;SDS011;31681;48.982;8.394;2023-05-29T11:43:06;5.97;;;3.40;;
45970;SDS011;31681;48.982;8.394;2023-05-29T11:45:32;6.93;;;2.95;;
45970;SDS011;31681;48.982;8.394;2023-05-29T11:47:58;5.32;;;3.22;;
45970;SDS011;31681;48.982;8.394;2023-05-29T11:50:28;5.60;;;3.25;;
45970;SDS011;31681;48.982;8.394;2023-05-29T11:52:55;5.55;;;3.13;;
45970;SDS011;31681;48.982;8.394;2023-05-29T11:55:20;5.85;;;3.50;;
45970;SDS011;31681;48.982;8.394;2023-05-29T11:57:46;5.65;;;3.00;;
45970;SDS011;31681;48.982;8.394;2023-05-29T12:00:12;5.43;;;3.20;;
45970;SDS011;31681;48.982;8.394;2023-05-29T12:02:38;5.75;;;2.90;;
45970;SDS011;31681;48.982;8.394;2023-05-29T12:05:04;5.80;;;3.63;;
45970;SDS011;31681;48.982;8.394;2023-05-29T12:07:29;6.90;;;3.40;;
45970;SDS011;31681;48.982;8.394;2023-05-29T12:09:55;4.50;;;3.35;;
45970;SDS011;31681;48.982;8.394;2023-05-29T12:12:23;5.18;;;3.25;;
45970;SDS011;31681;48.982;8.394;2023-05-29T12:14:51;6.10;;;3.05;;
45970;SDS011;31681;48.982;8.394;2023-05-29T12:17:17;8.77;;;4.18;;
45970;SDS011;31681;48.982;8.394;2023-05-29T12:19:43;6.95;;;3.08;;
45970;SDS011;31681;48.982;8.394;2023-05-29T12:22:09;5.10;;;2.70;;
45970;SDS011;31681;48.982;8.394;2023-05-29T12:24:34;4.95;;;3.03;;
45970;SDS011;31681;48.982;8.394;2023-05-29T12:27:03;5.38;;;2.90;;
45970;SDS011;31681;48.982;8.394;2023-05-29T12:29:29;6.03;;;3.40;;
45970;SDS011;31681;48.982;8.394;2023-05-29T12:31:58;3.67;;;2.60;;
45970;SDS011;31681;48.982;8.394;2023-05-29T12:34:24;5.13;;;2.83;;
45970;SDS011;31681;48.982;8.394;2023-05-29T12:36:49;4.88;;;3.13;;
45970;SDS011;31681;48.982;8.394;2023-05-29T12:39:15;4.75;;;3.40;;
45970;SDS011;31681;48.982;8.394;2023-05-29T12:41:40;5.57;;;3.60;;
45970;SDS011;31681;48.982;8.394;2023-05-29T12:44:06;5.15;;;3.25;;
45970;SDS011;31681;48.982;8.394;2023-05-29T12:46:35;8.77;;;3.40;;
45970;SDS011;31681;48.982;8.394;2023-05-29T12:49:11;5.43;;;3.25;;
45970;SDS011;31681;48.982;8.394;2023-05-29T12:51:39;4.45;;;3.03;;
45970;SDS011;31681;48.982;8.394;2023-05-29T12:54:05;4.28;;;2.97;;
45970;SDS011;31681;48.982;8.394;2023-05-29T12:56:30;6.35;;;2.88;;
45970;SDS011;31681;48.982;8.394;2023-05-29T12:58:55;6.20;;;3.22;;
45970;SDS011;31681;48.982;8.394;2023-05-29T13:01:21;5.53;;;2.90;;
45970;SDS011;31681;48.982;8.394;2023-05-29T13:03:47;5.55;;;3.08;;
45970;SDS011;31681;48.982;8.394;2023-05-29T13:06:12;4.63;;;2.97;;
45970;SDS011;31681;48.982;8.394;2023-05-29T13:08:38;5.78;;;2.90;;
45970;SDS011;31681;48.982;8.394;2023-05-29T13:11:03;4.10;;;2.97;;
45970;SDS011;31681;48.982;8.394;2023-05-29T13:13:28;3.55;;;2.70;;
45970;SDS011;31681;48.982;8.394;2023-05-29T13:15:54;4.63;;;3.08;;
45970;SDS011;31681;48.982;8.394;2023-05-29T13:18:19;6.80;;;3.67;;
45970;SDS011;31681;48.982;8.394;2023-05-29T13:20:45;3.58;;;2.80;;
45970;SDS011;31681;48.982;8.394;2023-05-29T13:23:10;5.05;;;3.20;;
45970;SDS011;31681;48.982;8.394;2023-05-29T13:25:35;5.35;;;3.03;;
45970;SDS011;31681;48.982;8.394;2023-05-29T13:28:01;5.95;;;2.75;;
45970;SDS011;31681;48.982;8.394;2023-05-29T13:30:26;6.68;;;2.60;;
45970;SDS011;31681;48.982;8.394;2023-05-29T13:32:52;3.20;;;2.75;;
45970;SDS011;31681;48.982;8.394;2023-05-29T13:35:17;4.93;;;3.15;;
45970;SDS011;31681;48.982;8.394;2023-05-29T13:37:43;3.97;;;3.00;;
45970;SDS011;31681;48.982;8.394;2023-05-29T13:40:10;7.00;;;2.83;;
45970;SDS011;31681;48.982;8.394;2023-05-29T13:42:36;4.20;;;2.47;;
45970;SDS011;31681;48.982;8.394;2023-05-29T13:45:02;3.47;;;2.70;;
45970;SDS011;31681;48.982;8.394;2023-05-29T13:47:27;3.78;;;2.50;;
45970;SDS011;31681;48.982;8.394;2023-05-29T13:49:57;6.00;;;2.80;;
45970;SDS011;31681;48.982;8.394;2023-05-29T13:52:22;5.88;;;2.80;;
45970;SDS011;31681;48.982;8.394;2023-05-29T13:54:48;5.35;;;2.75;;
45970;SDS011;31681;48.982;8.394;2023-05-29T13:57:13;4.65;;;2.88;;
45970;SDS011;31681;48.982;8.394;2023-05-29T13:59:38;5.47;;;2.80;;
45970;SDS011;31681;48.982;8.394;2023-05-29T14:02:04;5.07;;;2.95;;
45970;SDS011;31681;48.982;8.394;2023-05-29T14:04:30;3.75;;;2.45;;
45970;SDS011;31681;48.982;8.394;2023-05-29T14:06:56;4.80;;;3.17;;
45970;SDS011;31681;48.982;8.394;2023-05-29T14:09:24;3.35;;;2.60;;
45970;SDS011;31681;48.982;8.394;2023-05-29T14:11:55;3.53;;;2.30;;
45970;SDS011;31681;48.982;8.394;2023-05-29T14:14:21;4.20;;;2.53;;
45970;SDS011;31681;48.982;8.394;2023-05-29T14:16:47;4.88;;;2.55;;
45970;SDS011;31681;48.982;8.394;2023-05-29T14:19:13;4.55;;;2.58;;
45970;SDS011;31681;48.982;8.394;2023-05-29T14:21:38;6.88;;;3.05;;
45970;SDS011;31681;48.982;8.394;2023-05-29T14:24:03;4.90;;;2.53;;
45970;SDS011;31681;48.982;8.394;2023-05-29T14:26:29;2.92;;;2.47;;
45970;SDS011;31681;48.982;8.394;2023-05-29T14:28:54;5.68;;;2.60;;
45970;SDS011;31681;48.982;8.394;2023-05-29T14:31:20;7.68;;;3.00;;
45970;SDS011;31681;48.982;8.394;2023-05-29T14:33:45;4.40;;;2.63;;
45970;SDS011;31681;48.982;8.394;2023-05-29T14:36:10;6.32;;;2.88;;
45970;SDS011;31681;48.982;8.394;2023-05-29T14:38:35;4.28;;;2.33;;
45970;SDS011;31681;48.982;8.394;2023-05-29T14:41:01;4.22;;;2.70;;
45970;SDS011;31681;48.982;8.394;2023-05-29T14:43:27;5.82;;;2.42;;
45970;SDS011;31681;48.982;8.394;2023-05-29T14:45:52;3.80;;;2.35;;
45970;SDS011;31681;48.982;8.394;2023-05-29T14:48:17;4.35;;;2.60;;
45970;SDS011;31681;48.982;8.394;2023-05-29T14:50:43;5.00;;;2.55;;
45970;SDS011;31681;48.982;8.394;2023-05-29T14:53:08;4.88;;;2.45;;
45970;SDS011;31681;48.982;8.394;2023-05-29T14:55:33;2.97;;;2.30;;
45970;SDS011;31681;48.982;8.394;2023-05-29T14:58:05;6.40;;;3.28;;
45970;SDS011;31681;48.982;8.394;2023-05-29T15:00:30;6.22;;;2.80;;
45970;SDS011;31681;48.982;8.394;2023-05-29T15:02:56;5.35;;;2.22;;
45970;SDS011;31681;48.982;8.394;2023-05-29T15:05:24;5.95;;;3.30;;